sensor_id;sensor_type;location;lat;lon;timestamp;P1;durP1;ratioP1;P2;durP2;ratioP2
25083;SDS011;13075;55.682;37.564;2023-01-09T00:00:42;19.90;;;11.45;;
25083;SDS011;13075;55.682;37.564;2023-01-09T00:03:09;28.92;;;12.43;;
25083;SDS011;13075;55.682;37.564;2023-01-09T00:05:35;26.30;;;11.70;;
25083;SDS011;13075;55.682;37.564;2023-01-09T00:08:00;26.35;;;12.85;;
25083;SDS011;13075;55.682;37.564;2023-01-09T00:10:26;27.60;;;13.68;;
25083;SDS011;13075;55.682;37.564;2023-01-09T00:12:51;36.53;;;13.80;;
25083;SDS011;13075;55.682;37.564;2023-01-09T00:15:17;24.40;;;10.68;;
25083;SDS011;13075;55.682;37.564;2023-01-09T00:17:43;22.20;;;11.43;;
25083;SDS011;13075;55.682;37.564;2023-01-09T00:20:08;24.92;;;13.30;;
25083;SDS011;13075;55.682;37.564;2023-01-09T00:22:36;20.33;;;11.85;;
25083;SDS011;13075;55.682;37.564;2023-01-09T00:25:02;19.83;;;12.20;;
25083;SDS011;13075;55.682;37.564;2023-01-09T00:27:32;34.97;;;12.15;;
25083;SDS011;13075;55.682;37.564;2023-01-09T00:29:58;26.05;;;10.77;;
25083;SDS011;13075;55.682;37.564;2023-01-09T00:32:24;29.52;;;13.90;;
25083;SDS011;13075;55.682;37.564;2023-01-09T00:34:50;25.85;;;11.20;;
25083;SDS011;13075;55.682;37.564;2023-01-09T00:37:16;27.17;;;13.95;;
25083;SDS011;13075;55.682;37.564;2023-01-09T00:39:42;23.38;;;12.65;;
25083;SDS011;13075;55.682;37.564;2023-01-09T00:42:12;27.65;;;12.27;;
25083;SDS011;13075;55.682;37.564;2023-01-09T00:44:43;25.50;;;12.45;;
25083;SDS011;13075;55.682;37.564;2023-01-09T00:47:13;19.70;;;10.25;;
25083;SDS011;13075;55.682;37.564;2023-01-09T00:49:46;29.58;;;12.63;;
25083;SDS011;13075;55.682;37.564;2023-01-09T00:52:13;24.05;;;10.90;;
25083;SDS011;13075;55.682;37.564;2023-01-09T00:54:39;21.73;;;12.52;;
25083;SDS011;13075;55.682;37.564;2023-01-09T00:57:08;30.60;;;11.80;;
25083;SDS011;13075;55.682;37.564;2023-01-09T00:59:37;33.67;;;13.52;;
25083;SDS011;13075;55.682;37.564;2023-01-09T01:02:03;21.42;;;11.05;;
25083;SDS011;13075;55.682;37.564;2023-01-09T01:04:29;25.10;;;11.80;;
25083;SDS011;13075;55.682;37.564;2023-01-09T01:07:13;28.77;;;12.02;;
25083;SDS011;13075;55.682;37.564;2023-01-09T01:09:57;27.90;;;12.35;;
25083;SDS011;13075;55.682;37.564;2023-01-09T01:12:22;21.92;;;11.35;;
25083;SDS011;13075;55.682;37.564;2023-01-09T01:14:48;23.25;;;10.90;;
25083;SDS011;13075;55.682;37.564;2023-01-09T01:17:14;21.48;;;11.15;;
25083;SDS011;13075;55.682;37.564;2023-01-09T01:19:39;18.95;;;8.68;;
25083;SDS011;13075;55.682;37.564;2023-01-09T01:22:05;24.25;;;12.43;;
25083;SDS011;13075;55.682;37.564;2023-01-09T01:24:30;29.98;;;11.48;;
25083;SDS011;13075;55.682;37.564;2023-01-09T01:26:56;20.15;;;10.93;;
25083;SDS011;13075;55.682;37.564;2023-01-09T01:29:22;26.25;;;11.60;;
25083;SDS011;13075;55.682;37.564;2023-01-09T01:31:47;25.75;;;10.20;;
25083;SDS011;13075;55.682;37.564;2023-01-09T01:34:13;26.33;;;13.70;;
25083;SDS011;13075;55.682;37.564;2023-01-09T01:36:38;25.13;;;10.52;;
25083;SDS011;13075;55.682;37.564;2023-01-09T01:39:04;21.77;;;9.50;;
25083;SDS011;13075;55.682;37.564;2023-01-09T01:41:29;33.95;;;13.48;;
25083;SDS011;13075;55.682;37.564;2023-01-09T01:46:29;22.52;;;9.55;;
25083;SDS011;13075;55.682;37.564;2023-01-09T01:49:02;22.52;;;9.73;;
25083;SDS011;13075;55.682;37.564;2023-01-09T01:51:32;24.15;;;12.00;;
25083;SDS011;13075;55.682;37.564;2023-01-09T01:54:04;23.30;;;12.48;;
25083;SDS011;13075;55.682;37.564;2023-01-09T01:56:35;17.30;;;10.15;;
25083;SDS011;13075;55.682;37.564;2023-01-09T02:01:33;16.58;;;9.52;;
25083;SDS011;13075;55.682;37.564;2023-01-09T02:04:02;16.60;;;9.07;;
25083;SDS011;13075;55.682;37.564;2023-01-09T02:06:28;24.10;;;11.40;;
25083;SDS011;13075;55.682;37.564;2023-01-09T02:08:54;27.73;;;10.20;;
25083;SDS011;13075;55.682;37.564;2023-01-09T02:11:21;19.33;;;10.10;;
25083;SDS011;13075;55.682;37.564;2023-01-09T02:13:47;25.73;;;10.05;;
25083;SDS011;13075;55.682;37.564;2023-01-09T02:29:26;21.60;;;10.55;;
25083;SDS011;13075;55.682;37.564;2023-01-09T02:37:33;25.98;;;8.18;;
25083;SDS011;13075;55.682;37.564;2023-01-09T02:42:50;13.85;;;6.82;;
25083;SDS011;13075;55.682;37.564;2023-01-09T02:45:18;21.08;;;8.55;;
25083;SDS011;13075;55.682;37.564;2023-01-09T02:47:44;18.60;;;6.68;;
25083;SDS011;13075;55.682;37.564;2023-01-09T02:50:15;18.58;;;9.95;;
25083;SDS011;13075;55.682;37.564;2023-01-09T02:52:56;12.52;;;6.82;;
25083;SDS011;13075;55.682;37.564;2023-01-09T03:03:27;16.75;;;8.25;;
25083;SDS011;13075;55.682;37.564;2023-01-09T03:06:08;15.88;;;8.10;;
25083;SDS011;13075;55.682;37.564;2023-01-09T03:08:37;11.00;;;7.55;;
25083;SDS011;13075;55.682;37.564;2023-01-09T03:11:06;19.30;;;8.10;;
25083;SDS011;13075;55.682;37.564;2023-01-09T03:16:37;12.88;;;6.85;;
25083;SDS011;13075;55.682;37.564;2023-01-09T03:19:04;12.82;;;6.50;;
25083;SDS011;13075;55.682;37.564;2023-01-09T03:21:34;20.10;;;10.23;;
25083;SDS011;13075;55.682;37.564;2023-01-09T03:24:01;17.17;;;9.20;;
25083;SDS011;13075;55.682;37.564;2023-01-09T03:26:27;20.17;;;7.55;;
25083;SDS011;13075;55.682;37.564;2023-01-09T03:28:53;23.33;;;6.65;;
25083;SDS011;13075;55.682;37.564;2023-01-09T03:31:19;24.50;;;9.25;;
25083;SDS011;13075;55.682;37.564;2023-01-09T03:33:46;17.00;;;9.48;;
25083;SDS011;13075;55.682;37.564;2023-01-09T03:36:12;25.67;;;11.00;;
25083;SDS011;13075;55.682;37.564;2023-01-09T03:38:39;21.33;;;8.80;;
25083;SDS011;13075;55.682;37.564;2023-01-09T03:41:05;13.02;;;9.48;;
25083;SDS011;13075;55.682;37.564;2023-01-09T03:43:31;13.15;;;7.85;;
25083;SDS011;13075;55.682;37.564;2023-01-09T03:45:57;15.93;;;9.15;;
25083;SDS011;13075;55.682;37.564;2023-01-09T03:48:22;14.27;;;7.13;;
25083;SDS011;13075;55.682;37.564;2023-01-09T03:50:49;21.25;;;10.00;;
25083;SDS011;13075;55.682;37.564;2023-01-09T03:53:15;14.73;;;8.10;;
25083;SDS011;13075;55.682;37.564;2023-01-09T03:55:45;25.85;;;7.03;;
25083;SDS011;13075;55.682;37.564;2023-01-09T03:58:12;21.50;;;10.27;;
25083;SDS011;13075;55.682;37.564;2023-01-09T04:00:39;11.23;;;7.20;;
25083;SDS011;13075;55.682;37.564;2023-01-09T04:03:05;22.33;;;9.07;;
25083;SDS011;13075;55.682;37.564;2023-01-09T04:05:32;15.50;;;8.88;;
25083;SDS011;13075;55.682;37.564;2023-01-09T04:07:58;20.35;;;6.93;;
25083;SDS011;13075;55.682;37.564;2023-01-09T04:10:24;12.88;;;5.35;;
25083;SDS011;13075;55.682;37.564;2023-01-09T04:12:49;20.38;;;8.00;;
25083;SDS011;13075;55.682;37.564;2023-01-09T04:15:15;23.00;;;10.15;;
25083;SDS011;13075;55.682;37.564;2023-01-09T04:17:41;16.80;;;7.78;;
25083;SDS011;13075;55.682;37.564;2023-01-09T04:20:07;27.77;;;8.38;;
25083;SDS011;13075;55.682;37.564;2023-01-09T04:22:33;15.48;;;7.72;;
25083;SDS011;13075;55.682;37.564;2023-01-09T04:24:59;20.52;;;10.30;;
25083;SDS011;13075;55.682;37.564;2023-01-09T04:27:25;13.77;;;5.72;;
25083;SDS011;13075;55.682;37.564;2023-01-09T04:29:50;20.17;;;9.43;;
25083;SDS011;13075;55.682;37.564;2023-01-09T04:32:16;11.73;;;7.80;;
25083;SDS011;13075;55.682;37.564;2023-01-09T04:34:41;18.55;;;8.68;;
25083;SDS011;13075;55.682;37.564;2023-01-09T04:37:07;13.90;;;7.15;;
25083;SDS011;13075;55.682;37.564;2023-01-09T04:39:33;19.80;;;8.32;;
25083;SDS011;13075;55.682;37.564;2023-01-09T04:41:58;24.40;;;8.65;;
25083;SDS011;13075;55.682;37.564;2023-01-09T04:44:24;20.48;;;8.45;;
25083;SDS011;13075;55.682;37.564;2023-01-09T04:46:53;35.00;;;11.35;;
25083;SDS011;13075;55.682;37.564;2023-01-09T04:49:20;17.15;;;8.30;;
25083;SDS011;13075;55.682;37.564;2023-01-09T04:51:46;11.82;;;5.70;;
25083;SDS011;13075;55.682;37.564;2023-01-09T04:54:12;11.25;;;8.02;;
25083;SDS011;13075;55.682;37.564;2023-01-09T04:56:38;19.75;;;7.60;;
25083;SDS011;13075;55.682;37.564;2023-01-09T04:59:04;13.30;;;8.00;;
25083;SDS011;13075;55.682;37.564;2023-01-09T05:01:31;17.10;;;6.90;;
25083;SDS011;13075;55.682;37.564;2023-01-09T05:03:57;13.90;;;4.50;;
25083;SDS011;13075;55.682;37.564;2023-01-09T05:06:23;16.05;;;6.68;;
25083;SDS011;13075;55.682;37.564;2023-01-09T05:08:49;13.93;;;9.02;;
25083;SDS011;13075;55.682;37.564;2023-01-09T05:11:14;8.55;;;6.45;;
25083;SDS011;13075;55.682;37.564;2023-01-09T05:13:40;14.48;;;7.03;;
25083;SDS011;13075;55.682;37.564;2023-01-09T05:16:06;8.50;;;5.18;;
25083;SDS011;13075;55.682;37.564;2023-01-09T05:18:32;14.00;;;6.45;;
25083;SDS011;13075;55.682;37.564;2023-01-09T05:20:57;22.90;;;8.88;;
25083;SDS011;13075;55.682;37.564;2023-01-09T05:23:23;20.00;;;8.35;;
25083;SDS011;13075;55.682;37.564;2023-01-09T05:25:49;15.48;;;7.35;;
25083;SDS011;13075;55.682;37.564;2023-01-09T05:28:14;13.73;;;3.85;;
25083;SDS011;13075;55.682;37.564;2023-01-09T05:30:40;16.70;;;8.05;;
25083;SDS011;13075;55.682;37.564;2023-01-09T05:33:06;18.08;;;8.32;;
25083;SDS011;13075;55.682;37.564;2023-01-09T05:35:31;25.58;;;7.03;;
25083;SDS011;13075;55.682;37.564;2023-01-09T05:37:57;24.35;;;8.98;;
25083;SDS011;13075;55.682;37.564;2023-01-09T05:40:23;15.73;;;8.55;;
25083;SDS011;13075;55.682;37.564;2023-01-09T05:42:48;12.18;;;7.05;;
25083;SDS011;13075;55.682;37.564;2023-01-09T05:45:14;15.82;;;6.70;;
25083;SDS011;13075;55.682;37.564;2023-01-09T05:47:40;16.20;;;7.63;;
25083;SDS011;13075;55.682;37.564;2023-01-09T05:50:08;12.52;;;7.40;;
25083;SDS011;13075;55.682;37.564;2023-01-09T05:52:34;12.13;;;6.18;;
25083;SDS011;13075;55.682;37.564;2023-01-09T05:55:00;18.38;;;9.00;;
25083;SDS011;13075;55.682;37.564;2023-01-09T05:57:26;22.23;;;8.70;;
25083;SDS011;13075;55.682;37.564;2023-01-09T05:59:53;13.30;;;6.78;;
25083;SDS011;13075;55.682;37.564;2023-01-09T06:02:19;11.95;;;5.10;;
25083;SDS011;13075;55.682;37.564;2023-01-09T06:04:44;12.50;;;7.47;;
25083;SDS011;13075;55.682;37.564;2023-01-09T06:07:10;9.43;;;5.93;;
25083;SDS011;13075;55.682;37.564;2023-01-09T06:09:35;18.40;;;7.32;;
25083;SDS011;13075;55.682;37.564;2023-01-09T06:12:01;6.28;;;4.65;;
25083;SDS011;13075;55.682;37.564;2023-01-09T06:14:26;8.13;;;5.15;;
25083;SDS011;13075;55.682;37.564;2023-01-09T06:16:52;12.45;;;6.47;;
25083;SDS011;13075;55.682;37.564;2023-01-09T06:19:18;6.13;;;4.80;;
25083;SDS011;13075;55.682;37.564;2023-01-09T06:21:43;14.73;;;6.35;;
25083;SDS011;13075;55.682;37.564;2023-01-09T06:24:09;12.05;;;6.03;;
25083;SDS011;13075;55.682;37.564;2023-01-09T06:26:34;12.68;;;6.97;;
25083;SDS011;13075;55.682;37.564;2023-01-09T06:29:00;10.35;;;5.03;;
25083;SDS011;13075;55.682;37.564;2023-01-09T06:31:26;10.00;;;5.20;;
25083;SDS011;13075;55.682;37.564;2023-01-09T06:33:52;13.73;;;8.35;;
25083;SDS011;13075;55.682;37.564;2023-01-09T06:36:18;18.42;;;9.18;;
25083;SDS011;13075;55.682;37.564;2023-01-09T06:38:44;23.48;;;8.75;;
25083;SDS011;13075;55.682;37.564;2023-01-09T06:41:09;10.77;;;7.00;;
25083;SDS011;13075;55.682;37.564;2023-01-09T06:43:35;14.82;;;6.75;;
25083;SDS011;13075;55.682;37.564;2023-01-09T06:46:01;12.00;;;7.30;;
25083;SDS011;13075;55.682;37.564;2023-01-09T06:48:28;15.55;;;6.30;;
25083;SDS011;13075;55.682;37.564;2023-01-09T06:50:54;17.88;;;7.32;;
25083;SDS011;13075;55.682;37.564;2023-01-09T06:53:19;15.45;;;5.72;;
25083;SDS011;13075;55.682;37.564;2023-01-09T06:55:45;19.75;;;7.97;;
25083;SDS011;13075;55.682;37.564;2023-01-09T06:58:11;16.02;;;7.82;;
25083;SDS011;13075;55.682;37.564;2023-01-09T07:00:37;11.50;;;7.07;;
25083;SDS011;13075;55.682;37.564;2023-01-09T07:03:03;8.48;;;5.68;;
25083;SDS011;13075;55.682;37.564;2023-01-09T07:05:29;10.98;;;5.90;;
25083;SDS011;13075;55.682;37.564;2023-01-09T07:08:04;11.77;;;6.32;;
25083;SDS011;13075;55.682;37.564;2023-01-09T07:10:30;7.93;;;6.65;;
25083;SDS011;13075;55.682;37.564;2023-01-09T07:12:55;13.20;;;7.13;;
25083;SDS011;13075;55.682;37.564;2023-01-09T07:15:21;11.93;;;6.50;;
25083;SDS011;13075;55.682;37.564;2023-01-09T07:17:47;10.50;;;6.43;;
25083;SDS011;13075;55.682;37.564;2023-01-09T07:20:15;11.60;;;5.97;;
25083;SDS011;13075;55.682;37.564;2023-01-09T07:22:42;17.38;;;7.20;;
25083;SDS011;13075;55.682;37.564;2023-01-09T07:25:08;16.75;;;6.22;;
25083;SDS011;13075;55.682;37.564;2023-01-09T07:27:34;13.35;;;6.68;;
25083;SDS011;13075;55.682;37.564;2023-01-09T07:30:00;18.85;;;6.85;;
25083;SDS011;13075;55.682;37.564;2023-01-09T07:32:25;15.70;;;7.63;;
25083;SDS011;13075;55.682;37.564;2023-01-09T07:34:51;24.92;;;10.15;;
25083;SDS011;13075;55.682;37.564;2023-01-09T07:37:17;13.52;;;5.40;;
25083;SDS011;13075;55.682;37.564;2023-01-09T07:39:43;15.50;;;7.95;;
25083;SDS011;13075;55.682;37.564;2023-01-09T07:42:09;31.88;;;9.20;;
25083;SDS011;13075;55.682;37.564;2023-01-09T07:44:35;16.80;;;7.95;;
25083;SDS011;13075;55.682;37.564;2023-01-09T07:47:00;13.55;;;7.15;;
25083;SDS011;13075;55.682;37.564;2023-01-09T07:49:26;21.42;;;9.02;;
25083;SDS011;13075;55.682;37.564;2023-01-09T07:51:52;16.73;;;7.07;;
25083;SDS011;13075;55.682;37.564;2023-01-09T07:54:17;15.45;;;6.47;;
25083;SDS011;13075;55.682;37.564;2023-01-09T07:56:43;16.35;;;5.97;;
25083;SDS011;13075;55.682;37.564;2023-01-09T07:59:08;8.38;;;3.72;;
25083;SDS011;13075;55.682;37.564;2023-01-09T08:01:34;16.13;;;7.45;;
25083;SDS011;13075;55.682;37.564;2023-01-09T08:04:00;6.47;;;4.72;;
25083;SDS011;13075;55.682;37.564;2023-01-09T08:06:25;12.68;;;7.38;;
25083;SDS011;13075;55.682;37.564;2023-01-09T08:08:51;10.98;;;5.32;;
25083;SDS011;13075;55.682;37.564;2023-01-09T08:11:17;11.85;;;6.93;;
25083;SDS011;13075;55.682;37.564;2023-01-09T08:13:42;21.08;;;7.90;;
25083;SDS011;13075;55.682;37.564;2023-01-09T08:16:08;16.15;;;8.20;;
25083;SDS011;13075;55.682;37.564;2023-01-09T08:18:33;18.70;;;8.13;;
25083;SDS011;13075;55.682;37.564;2023-01-09T08:20:59;13.57;;;7.38;;
25083;SDS011;13075;55.682;37.564;2023-01-09T08:23:25;14.43;;;6.38;;
25083;SDS011;13075;55.682;37.564;2023-01-09T08:25:51;11.38;;;6.35;;
25083;SDS011;13075;55.682;37.564;2023-01-09T08:28:17;19.38;;;5.80;;
25083;SDS011;13075;55.682;37.564;2023-01-09T08:30:42;15.52;;;6.35;;
25083;SDS011;13075;55.682;37.564;2023-01-09T08:33:08;13.98;;;8.27;;
25083;SDS011;13075;55.682;37.564;2023-01-09T08:35:34;11.00;;;6.20;;
25083;SDS011;13075;55.682;37.564;2023-01-09T08:38:01;9.05;;;4.20;;
25083;SDS011;13075;55.682;37.564;2023-01-09T08:40:26;10.82;;;3.83;;
25083;SDS011;13075;55.682;37.564;2023-01-09T08:42:52;11.35;;;6.53;;
25083;SDS011;13075;55.682;37.564;2023-01-09T08:45:36;15.18;;;5.38;;
25083;SDS011;13075;55.682;37.564;2023-01-09T08:48:20;7.68;;;5.20;;
25083;SDS011;13075;55.682;37.564;2023-01-09T08:50:46;5.22;;;3.40;;
25083;SDS011;13075;55.682;37.564;2023-01-09T08:53:11;6.45;;;3.83;;
25083;SDS011;13075;55.682;37.564;2023-01-09T08:55:38;17.55;;;6.50;;
25083;SDS011;13075;55.682;37.564;2023-01-09T08:58:03;10.60;;;2.83;;
25083;SDS011;13075;55.682;37.564;2023-01-09T09:00:29;11.13;;;5.30;;
25083;SDS011;13075;55.682;37.564;2023-01-09T09:02:58;9.90;;;5.57;;
25083;SDS011;13075;55.682;37.564;2023-01-09T09:05:26;8.98;;;4.97;;
25083;SDS011;13075;55.682;37.564;2023-01-09T09:07:53;9.63;;;5.55;;
25083;SDS011;13075;55.682;37.564;2023-01-09T09:10:20;13.18;;;4.60;;
25083;SDS011;13075;55.682;37.564;2023-01-09T09:12:50;8.73;;;4.03;;
25083;SDS011;13075;55.682;37.564;2023-01-09T09:15:17;15.48;;;5.93;;
25083;SDS011;13075;55.682;37.564;2023-01-09T09:17:55;12.23;;;6.53;;
25083;SDS011;13075;55.682;37.564;2023-01-09T09:20:24;13.30;;;5.75;;
25083;SDS011;13075;55.682;37.564;2023-01-09T09:22:52;12.73;;;5.68;;
25083;SDS011;13075;55.682;37.564;2023-01-09T09:25:18;10.70;;;6.55;;
25083;SDS011;13075;55.682;37.564;2023-01-09T09:27:44;8.57;;;4.97;;
25083;SDS011;13075;55.682;37.564;2023-01-09T09:30:10;14.27;;;5.78;;
25083;SDS011;13075;55.682;37.564;2023-01-09T09:32:39;8.93;;;6.10;;
25083;SDS011;13075;55.682;37.564;2023-01-09T09:35:05;14.70;;;6.78;;
25083;SDS011;13075;55.682;37.564;2023-01-09T09:37:31;14.60;;;5.55;;
25083;SDS011;13075;55.682;37.564;2023-01-09T09:39:57;16.67;;;5.82;;
25083;SDS011;13075;55.682;37.564;2023-01-09T09:48:02;11.60;;;4.13;;
25083;SDS011;13075;55.682;37.564;2023-01-09T09:53:16;11.80;;;5.65;;
25083;SDS011;13075;55.682;37.564;2023-01-09T09:56:02;16.50;;;6.43;;
25083;SDS011;13075;55.682;37.564;2023-01-09T09:58:45;12.98;;;5.60;;
25083;SDS011;13075;55.682;37.564;2023-01-09T10:01:18;20.58;;;7.18;;
25083;SDS011;13075;55.682;37.564;2023-01-09T10:03:49;8.60;;;3.22;;
25083;SDS011;13075;55.682;37.564;2023-01-09T10:11:47;9.75;;;3.17;;
25083;SDS011;13075;55.682;37.564;2023-01-09T10:14:29;17.20;;;4.40;;
25083;SDS011;13075;55.682;37.564;2023-01-09T10:19:54;4.85;;;2.38;;
25083;SDS011;13075;55.682;37.564;2023-01-09T10:22:40;8.73;;;5.53;;
25083;SDS011;13075;55.682;37.564;2023-01-09T10:25:23;14.38;;;5.50;;
25083;SDS011;13075;55.682;37.564;2023-01-09T10:33:15;6.90;;;3.65;;
25083;SDS011;13075;55.682;37.564;2023-01-09T10:38:40;9.38;;;4.25;;
25083;SDS011;13075;55.682;37.564;2023-01-09T10:41:12;13.45;;;5.03;;
25083;SDS011;13075;55.682;37.564;2023-01-09T10:43:53;19.35;;;3.92;;
25083;SDS011;13075;55.682;37.564;2023-01-09T10:46:37;10.88;;;5.20;;
25083;SDS011;13075;55.682;37.564;2023-01-09T10:49:21;6.68;;;4.47;;
25083;SDS011;13075;55.682;37.564;2023-01-09T10:51:49;13.32;;;5.30;;
25083;SDS011;13075;55.682;37.564;2023-01-09T10:54:35;8.85;;;4.00;;
25083;SDS011;13075;55.682;37.564;2023-01-09T10:57:13;4.55;;;3.92;;
25083;SDS011;13075;55.682;37.564;2023-01-09T10:59:47;8.75;;;5.13;;
25083;SDS011;13075;55.682;37.564;2023-01-09T11:02:22;9.65;;;6.43;;
25083;SDS011;13075;55.682;37.564;2023-01-09T11:04:54;7.35;;;4.13;;
25083;SDS011;13075;55.682;37.564;2023-01-09T11:07:27;5.45;;;3.80;;
25083;SDS011;13075;55.682;37.564;2023-01-09T11:10:00;16.95;;;8.70;;
25083;SDS011;13075;55.682;37.564;2023-01-09T11:12:29;10.02;;;5.00;;
25083;SDS011;13075;55.682;37.564;2023-01-09T11:15:16;16.95;;;5.00;;
25083;SDS011;13075;55.682;37.564;2023-01-09T11:17:48;15.15;;;6.05;;
25083;SDS011;13075;55.682;37.564;2023-01-09T11:20:23;11.65;;;6.55;;
25083;SDS011;13075;55.682;37.564;2023-01-09T11:22:52;16.10;;;6.05;;
25083;SDS011;13075;55.682;37.564;2023-01-09T11:25:21;16.38;;;7.05;;
25083;SDS011;13075;55.682;37.564;2023-01-09T11:30:26;13.48;;;6.07;;
25083;SDS011;13075;55.682;37.564;2023-01-09T11:32:53;17.73;;;6.13;;
25083;SDS011;13075;55.682;37.564;2023-01-09T11:35:21;12.82;;;7.18;;
25083;SDS011;13075;55.682;37.564;2023-01-09T11:38:09;10.50;;;7.03;;
25083;SDS011;13075;55.682;37.564;2023-01-09T11:40:49;12.15;;;5.85;;
25083;SDS011;13075;55.682;37.564;2023-01-09T11:45:57;9.95;;;5.20;;
25083;SDS011;13075;55.682;37.564;2023-01-09T11:49:18;7.35;;;5.13;;
25083;SDS011;13075;55.682;37.564;2023-01-09T11:51:20;8.20;;;3.22;;
25083;SDS011;13075;55.682;37.564;2023-01-09T11:56:35;9.75;;;3.75;;
25083;SDS011;13075;55.682;37.564;2023-01-09T11:59:04;15.50;;;4.78;;
25083;SDS011;13075;55.682;37.564;2023-01-09T12:04:31;12.20;;;6.20;;
25083;SDS011;13075;55.682;37.564;2023-01-09T12:07:13;11.85;;;6.25;;
25083;SDS011;13075;55.682;37.564;2023-01-09T12:12:59;34.40;;;15.48;;
25083;SDS011;13075;55.682;37.564;2023-01-09T12:26:16;13.18;;;5.05;;
25083;SDS011;13075;55.682;37.564;2023-01-09T12:40:37;5.80;;;4.60;;
25083;SDS011;13075;55.682;37.564;2023-01-09T12:45:53;11.50;;;3.80;;
25083;SDS011;13075;55.682;37.564;2023-01-09T12:48:34;9.43;;;5.85;;
25083;SDS011;13075;55.682;37.564;2023-01-09T12:53:51;8.07;;;5.78;;
25083;SDS011;13075;55.682;37.564;2023-01-09T12:56:24;7.60;;;3.55;;
25083;SDS011;13075;55.682;37.564;2023-01-09T13:02:03;16.67;;;6.43;;
25083;SDS011;13075;55.682;37.564;2023-01-09T13:07:34;9.25;;;3.05;;
25083;SDS011;13075;55.682;37.564;2023-01-09T13:12:54;15.25;;;6.63;;
25083;SDS011;13075;55.682;37.564;2023-01-09T13:15:35;10.15;;;3.70;;
25083;SDS011;13075;55.682;37.564;2023-01-09T13:18:20;5.03;;;4.53;;
25083;SDS011;13075;55.682;37.564;2023-01-09T13:20:52;5.38;;;3.10;;
25083;SDS011;13075;55.682;37.564;2023-01-09T13:23:25;5.57;;;3.00;;
25083;SDS011;13075;55.682;37.564;2023-01-09T13:26:03;4.15;;;3.10;;
25083;SDS011;13075;55.682;37.564;2023-01-09T13:28:34;9.73;;;3.40;;
25083;SDS011;13075;55.682;37.564;2023-01-09T13:33:54;6.13;;;3.35;;
25083;SDS011;13075;55.682;37.564;2023-01-09T13:36:32;5.32;;;2.92;;
25083;SDS011;13075;55.682;37.564;2023-01-09T13:39:02;6.97;;;3.50;;
25083;SDS011;13075;55.682;37.564;2023-01-09T13:41:29;16.48;;;4.43;;
25083;SDS011;13075;55.682;37.564;2023-01-09T13:46:53;5.22;;;3.47;;
25083;SDS011;13075;55.682;37.564;2023-01-09T13:52:05;1.23;;;1.13;;
25083;SDS011;13075;55.682;37.564;2023-01-09T13:57:23;5.20;;;2.05;;
25083;SDS011;13075;55.682;37.564;2023-01-09T14:07:51;11.68;;;4.55;;
25083;SDS011;13075;55.682;37.564;2023-01-09T14:10:46;6.68;;;3.70;;
25083;SDS011;13075;55.682;37.564;2023-01-09T14:15:51;4.43;;;1.80;;
25083;SDS011;13075;55.682;37.564;2023-01-09T14:18:28;4.03;;;3.17;;
25083;SDS011;13075;55.682;37.564;2023-01-09T14:23:32;8.18;;;4.97;;
25083;SDS011;13075;55.682;37.564;2023-01-09T14:26:21;15.83;;;5.50;;
25083;SDS011;13075;55.682;37.564;2023-01-09T14:35:08;7.10;;;3.38;;
25083;SDS011;13075;55.682;37.564;2023-01-09T14:37:38;11.38;;;4.65;;
25083;SDS011;13075;55.682;37.564;2023-01-09T14:40:04;17.63;;;5.20;;
25083;SDS011;13075;55.682;37.564;2023-01-09T14:42:31;6.55;;;3.53;;
25083;SDS011;13075;55.682;37.564;2023-01-09T14:45:06;7.72;;;3.15;;
25083;SDS011;13075;55.682;37.564;2023-01-09T14:53:03;4.15;;;3.33;;
25083;SDS011;13075;55.682;37.564;2023-01-09T14:58:11;12.00;;;4.10;;
25083;SDS011;13075;55.682;37.564;2023-01-09T15:00:52;6.18;;;3.75;;
25083;SDS011;13075;55.682;37.564;2023-01-09T15:03:23;6.05;;;3.65;;
25083;SDS011;13075;55.682;37.564;2023-01-09T15:05:54;4.25;;;3.30;;
25083;SDS011;13075;55.682;37.564;2023-01-09T15:08:21;6.65;;;3.58;;
25083;SDS011;13075;55.682;37.564;2023-01-09T15:10:51;4.32;;;3.47;;
25083;SDS011;13075;55.682;37.564;2023-01-09T15:13:28;2.95;;;2.70;;
25083;SDS011;13075;55.682;37.564;2023-01-09T15:15:58;6.57;;;2.78;;
25083;SDS011;13075;55.682;37.564;2023-01-09T15:18:26;3.83;;;2.65;;
25083;SDS011;13075;55.682;37.564;2023-01-09T15:20:55;7.78;;;4.03;;
25083;SDS011;13075;55.682;37.564;2023-01-09T15:23:24;15.13;;;4.18;;
25083;SDS011;13075;55.682;37.564;2023-01-09T15:25:55;6.18;;;3.67;;
25083;SDS011;13075;55.682;37.564;2023-01-09T15:28:26;9.38;;;3.63;;
25083;SDS011;13075;55.682;37.564;2023-01-09T15:33:23;7.60;;;5.63;;
25083;SDS011;13075;55.682;37.564;2023-01-09T15:35:49;9.60;;;4.10;;
25083;SDS011;13075;55.682;37.564;2023-01-09T15:38:17;9.57;;;3.55;;
25083;SDS011;13075;55.682;37.564;2023-01-09T15:41:22;14.07;;;3.38;;
25083;SDS011;13075;55.682;37.564;2023-01-09T15:44:11;7.05;;;2.78;;
25083;SDS011;13075;55.682;37.564;2023-01-09T15:46:40;16.13;;;4.95;;
25083;SDS011;13075;55.682;37.564;2023-01-09T15:49:09;7.53;;;2.20;;
25083;SDS011;13075;55.682;37.564;2023-01-09T15:51:36;12.05;;;5.47;;
25083;SDS011;13075;55.682;37.564;2023-01-09T15:54:02;7.85;;;3.33;;
25083;SDS011;13075;55.682;37.564;2023-01-09T15:56:28;14.25;;;2.67;;
25083;SDS011;13075;55.682;37.564;2023-01-09T15:58:58;14.68;;;6.63;;
25083;SDS011;13075;55.682;37.564;2023-01-09T16:06:35;8.90;;;5.13;;
25083;SDS011;13075;55.682;37.564;2023-01-09T16:09:03;13.95;;;8.88;;
25083;SDS011;13075;55.682;37.564;2023-01-09T16:11:39;10.32;;;5.93;;
25083;SDS011;13075;55.682;37.564;2023-01-09T16:14:19;25.42;;;8.43;;
25083;SDS011;13075;55.682;37.564;2023-01-09T16:16:49;31.08;;;12.63;;
25083;SDS011;13075;55.682;37.564;2023-01-09T16:22:25;42.83;;;17.90;;
25083;SDS011;13075;55.682;37.564;2023-01-09T16:24:52;57.30;;;23.63;;
25083;SDS011;13075;55.682;37.564;2023-01-09T16:29:48;47.38;;;18.83;;
25083;SDS011;13075;55.682;37.564;2023-01-09T16:32:34;38.55;;;17.73;;
25083;SDS011;13075;55.682;37.564;2023-01-09T16:35:19;18.20;;;8.00;;
25083;SDS011;13075;55.682;37.564;2023-01-09T16:37:47;23.83;;;10.10;;
25083;SDS011;13075;55.682;37.564;2023-01-09T16:42:38;20.77;;;8.57;;
25083;SDS011;13075;55.682;37.564;2023-01-09T16:45:26;24.23;;;9.30;;
25083;SDS011;13075;55.682;37.564;2023-01-09T16:47:54;12.03;;;6.20;;
25083;SDS011;13075;55.682;37.564;2023-01-09T16:50:22;8.95;;;5.07;;
25083;SDS011;13075;55.682;37.564;2023-01-09T16:52:49;16.63;;;5.95;;
25083;SDS011;13075;55.682;37.564;2023-01-09T16:55:15;19.08;;;10.55;;
25083;SDS011;13075;55.682;37.564;2023-01-09T16:57:40;34.50;;;14.95;;
25083;SDS011;13075;55.682;37.564;2023-01-09T17:00:14;48.40;;;16.02;;
25083;SDS011;13075;55.682;37.564;2023-01-09T17:02:42;12.30;;;4.20;;
25083;SDS011;13075;55.682;37.564;2023-01-09T17:05:07;13.38;;;6.50;;
25083;SDS011;13075;55.682;37.564;2023-01-09T17:07:33;7.22;;;2.97;;
25083;SDS011;13075;55.682;37.564;2023-01-09T17:09:59;9.00;;;4.40;;
25083;SDS011;13075;55.682;37.564;2023-01-09T17:12:26;10.45;;;3.05;;
25083;SDS011;13075;55.682;37.564;2023-01-09T17:14:52;10.18;;;4.32;;
25083;SDS011;13075;55.682;37.564;2023-01-09T17:17:17;3.75;;;1.90;;
25083;SDS011;13075;55.682;37.564;2023-01-09T17:19:45;4.63;;;3.00;;